Time;durP1;ratioP1;P1;durP2;ratioP2;P2;SDS_P1;SDS_P2;PMS_P1;PMS_P2;Temp;Humidity;BMP_temperature;BMP_pressure;BME280_temperature;BME280_humidity;BME280_pressure;Samples;Min_cycle;Max_cycle;Signal;HPM_P1;HPM_P2
2022/10/22 00:00:16;;;;;;;127.55;56.13;;;;;;;0.09;100.00;101788.12;1751863;81;21580;-70
2022/10/22 00:02:44;;;;;;;126.72;54.77;;;;;;;0.14;100.00;101790.74;1755998;81;21013;-70
2022/10/22 00:05:11;;;;;;;122.78;54.50;;;;;;;0.14;100.00;101791.62;1763324;80;21091;-69
2022/10/22 00:07:38;;;;;;;116.73;51.77;;;;;;;0.14;100.00;101781.88;1765400;80;21021;-69
2022/10/22 00:10:08;;;;;;;100.27;45.25;;;;;;;0.11;100.00;101783.10;1759607;81;21030;-69
2022/10/22 00:12:35;;;;;;;76.67;38.95;;;;;;;0.13;100.00;101781.03;1765835;81;21024;-70
2022/10/22 00:15:05;;;;;;;83.27;41.05;;;;;;;0.11;100.00;101773.82;1734000;81;21015;-69
2022/10/22 00:17:32;;;;;;;83.25;39.35;;;;;;;0.08;100.00;101780.11;1724929;81;21015;-69
2022/10/22 00:20:00;;;;;;;82.00;38.92;;;;;;;0.03;100.00;101775.34;1727430;82;21058;-70
2022/10/22 00:22:28;;;;;;;83.45;38.95;;;;;;;0.02;100.00;101771.12;1720160;82;21079;-69
2022/10/22 00:24:55;;;;;;;76.20;35.80;;;;;;;-0.01;100.00;101765.98;1735176;82;21071;-69
2022/10/22 00:27:22;;;;;;;74.65;34.80;;;;;;;-0.04;100.00;101762.99;1722228;82;21093;-69
2022/10/22 00:29:49;;;;;;;70.95;33.75;;;;;;;-0.04;100.00;101768.45;1725246;82;21047;-70
2022/10/22 00:32:17;;;;;;;77.30;35.38;;;;;;;-0.03;100.00;101763.42;1733251;83;21055;-69
2022/10/22 00:34:44;;;;;;;77.78;35.68;;;;;;;-0.07;100.00;101764.19;1723222;82;21015;-69
2022/10/22 00:37:12;;;;;;;77.40;36.15;;;;;;;-0.13;100.00;101762.80;1732592;82;21598;-70
2022/10/22 00:39:39;;;;;;;77.30;37.38;;;;;;;-0.11;100.00;101753.98;1731404;82;21059;-69
2022/10/22 00:42:06;;;;;;;73.33;34.43;;;;;;;-0.04;100.00;101757.05;1730479;82;21586;-69
2022/10/22 00:45:14;;;;;;;79.37;38.25;;;;;;;-0.03;100.00;101759.63;1730393;82;21568;-69
2022/10/22 00:48:08;;;;;;;80.87;38.05;;;;;;;-0.03;100.00;101761.31;1736395;82;21028;-69
2022/10/22 00:50:48;;;;;;;80.95;37.28;;;;;;;-0.06;100.00;101756.17;1726094;82;21624;-69
2022/10/22 00:53:20;;;;;;;87.78;39.03;;;;;;;-0.06;100.00;101748.58;1730521;81;21043;-69
2022/10/22 00:55:51;;;;;;;74.20;36.93;;;;;;;-0.09;100.00;101739.25;1725973;82;21043;-69
2022/10/22 00:58:22;;;;;;;90.22;38.80;;;;;;;-0.07;100.00;101741.83;1722193;81;21483;-70
2022/10/22 01:00:49;;;;;;;78.65;37.65;;;;;;;-0.08;100.00;101746.42;1716244;82;21026;-70
2022/10/22 01:03:16;;;;;;;79.05;38.85;;;;;;;-0.09;100.00;101743.47;1726332;82;21476;-69
2022/10/22 01:05:48;;;;;;;79.35;37.78;;;;;;;-0.05;100.00;101742.70;1730073;82;20992;-70
2022/10/22 01:08:45;;;;;;;85.22;39.53;;;;;;;-0.08;100.00;101740.09;1723955;82;21070;-70
2022/10/22 01:11:39;;;;;;;80.95;38.58;;;;;;;-0.05;100.00;101740.17;1724365;82;21044;-70
2022/10/22 01:17:20;;;;;;;83.70;37.98;;;;;;;-0.61;100.00;101736.91;1841319;77;23419;-70
2022/10/22 01:20:01;;;;;;;76.65;37.53;;;;;;;-0.50;100.00;101727.05;1810927;79;21022;-70
2022/10/22 01:22:45;;;;;;;73.87;36.50;;;;;;;-0.47;100.00;101724.56;1803837;79;21050;-71
2022/10/22 01:25:33;;;;;;;85.10;39.05;;;;;;;-0.52;100.00;101722.36;1810731;79;21510;-70
2022/10/22 01:28:23;;;;;;;80.77;39.30;;;;;;;-0.51;100.00;101721.11;1803575;79;21034;-70
2022/10/22 01:30:54;;;;;;;78.65;38.63;;;;;;;-0.54;100.00;101722.74;1788760;79;21491;-71
2022/10/22 01:33:24;;;;;;;83.92;38.53;;;;;;;-0.59;100.00;101720.09;1792007;79;21067;-70
2022/10/22 01:35:53;;;;;;;78.10;37.13;;;;;;;-0.65;100.00;101719.58;1787503;79;21019;-70
2022/10/22 01:38:23;;;;;;;81.80;36.95;;;;;;;-0.66;100.00;101715.33;1793658;79;21565;-70
2022/10/22 01:40:51;;;;;;;75.72;36.70;;;;;;;-0.65;100.00;101717.44;1795861;79;21023;-71
2022/10/22 01:43:18;;;;;;;72.00;35.45;;;;;;;-0.66;100.00;101723.33;1737317;82;21020;-70
2022/10/22 01:45:53;;;;;;;73.20;35.00;;;;;;;-0.66;100.00;101720.38;1741581;82;21029;-70
2022/10/22 01:48:52;;;;;;;66.45;30.85;;;;;;;-0.66;100.00;101726.70;1786099;80;21054;-71
2022/10/22 01:52:04;;;;;;;63.73;30.82;;;;;;;-0.66;100.00;101725.86;1777455;79;21007;-70
2022/10/22 01:54:48;;;;;;;71.62;32.38;;;;;;;-0.66;100.00;101719.54;1796788;79;21130;-70
2022/10/22 01:57:42;;;;;;;68.00;30.88;;;;;;;-0.71;100.00;101713.12;1790566;79;21015;-70
2022/10/22 02:00:14;;;;;;;65.45;30.45;;;;;;;-0.69;100.00;101713.13;1789210;79;21094;-71
2022/10/22 02:03:05;;;;;;;67.90;28.15;;;;;;;-0.68;100.00;101718.66;1771443;79;21054;-70
2022/10/22 02:05:45;;;;;;;64.45;29.67;;;;;;;-0.65;100.00;101719.97;1767896;80;21036;-71
2022/10/22 02:08:18;;;;;;;62.50;30.55;;;;;;;-0.69;100.00;101717.80;1777973;79;21305;-71
2022/10/22 02:10:47;;;;;;;62.78;30.27;;;;;;;-0.79;100.00;101716.28;1775676;79;21052;-70
2022/10/22 02:13:28;;;;;;;60.90;31.00;;;;;;;-0.83;100.00;101719.18;1786670;79;20988;-71
2022/10/22 02:15:59;;;;;;;67.25;30.95;;;;;;;-0.85;100.00;101720.40;1767666;80;21102;-70
2022/10/22 02:18:30;;;;;;;56.77;30.15;;;;;;;-0.82;100.00;101722.13;1763866;80;21035;-70
2022/10/22 02:20:59;;;;;;;57.50;28.60;;;;;;;-0.84;100.00;101722.52;1760165;81;21085;-71
2022/10/22 02:23:27;;;;;;;61.13;29.87;;;;;;;-0.84;100.00;101726.30;1758042;80;21366;-70
2022/10/22 02:26:08;;;;;;;60.40;30.95;;;;;;;-0.84;100.00;101728.83;1755977;80;21114;-70
2022/10/22 02:28:47;;;;;;;59.58;30.45;;;;;;;-0.77;100.00;101728.55;1746636;81;21567;-70
2022/10/22 02:31:23;;;;;;;65.60;32.48;;;;;;;-0.78;100.00;101729.38;1753645;80;21127;-70
2022/10/22 02:33:54;;;;;;;59.38;30.12;;;;;;;-0.80;100.00;101725.55;1757930;80;21074;-70
2022/10/22 02:36:23;;;;;;;66.60;31.33;;;;;;;-0.81;100.00;101725.13;1762389;80;21012;-71
2022/10/22 02:38:51;;;;;;;66.80;30.08;;;;;;;-0.76;100.00;101731.53;1753850;80;21018;-70
2022/10/22 02:41:19;;;;;;;63.85;31.37;;;;;;;-0.75;100.00;101727.78;1748704;81;21049;-70
2022/10/22 02:43:53;;;;;;;61.40;30.10;;;;;;;-0.77;100.00;101727.28;1750749;81;21033;-71
2022/10/22 02:46:21;;;;;;;58.55;29.75;;;;;;;-0.78;100.00;101732.76;1758879;80;21032;-71
2022/10/22 02:48:48;;;;;;;63.90;29.82;;;;;;;-0.80;100.00;101738.19;1760780;81;21624;-70
2022/10/22 02:51:15;;;;;;;57.60;29.87;;;;;;;-0.81;100.00;101739.03;1750220;81;21040;-70
2022/10/22 02:53:43;;;;;;;64.72;29.35;;;;;;;-0.74;100.00;101737.48;1750316;81;21114;-70
2022/10/22 02:56:10;;;;;;;61.45;30.17;;;;;;;-0.76;100.00;101745.02;1753614;81;21027;-70
2022/10/22 02:58:37;;;;;;;61.58;30.17;;;;;;;-0.77;100.00;101754.70;1728320;81;21032;-70
2022/10/22 03:01:05;;;;;;;61.68;30.55;;;;;;;-0.76;100.00;101751.34;1754585;80;20996;-70
2022/10/22 03:03:32;;;;;;;62.48;30.57;;;;;;;-0.86;100.00;101754.48;1760689;80;21475;-70
2022/10/22 03:06:02;;;;;;;62.73;30.62;;;;;;;-0.88;100.00;101758.66;1748290;81;21090;-70
2022/10/22 03:08:31;;;;;;;58.98;30.00;;;;;;;-0.94;100.00;101759.36;1748662;81;21070;-70
2022/10/22 03:11:00;;;;;;;63.28;30.60;;;;;;;-0.95;100.00;101757.66;1754026;80;21022;-70
2022/10/22 03:13:28;;;;;;;60.30;29.20;;;;;;;-0.96;100.00;101761.41;1748089;81;21043;-70
2022/10/22 03:15:55;;;;;;;61.35;29.60;;;;;;;-0.94;100.00;101763.15;1752944;80;21101;-69
2022/10/22 03:18:24;;;;;;;60.28;30.35;;;;;;;-0.91;100.00;101762.36;1751573;81;21538;-70
2022/10/22 03:21:03;;;;;;;64.42;29.75;;;;;;;-0.90;100.00;101755.23;1747849;81;21512;-71
2022/10/22 03:23:31;;;;;;;56.65;29.27;;;;;;;-0.94;100.00;101762.30;1752245;80;21110;-70
2022/10/22 03:25:59;;;;;;;55.43;28.50;;;;;;;-0.96;100.00;101754.67;1754039;80;21031;-70
2022/10/22 03:28:27;;;;;;;58.78;28.50;;;;;;;-0.99;100.00;101761.33;1754916;81;21078;-70
2022/10/22 03:30:54;;;;;;;57.25;27.77;;;;;;;-1.05;100.00;101759.11;1743790;81;21005;-70
2022/10/22 03:33:21;;;;;;;53.02;28.25;;;;;;;-1.04;100.00;101762.07;1759400;81;21090;-70
2022/10/22 03:35:47;;;;;;;50.25;26.20;;;;;;;-0.98;100.00;101757.99;1751007;81;21107;-70
2022/10/22 03:38:15;;;;;;;54.18;26.17;;;;;;;-1.03;100.00;101760.42;1744028;81;21068;-70
2022/10/22 03:40:43;;;;;;;57.30;28.00;;;;;;;-1.09;100.00;101764.91;1759336;80;21059;-70
2022/10/22 03:43:11;;;;;;;55.25;28.95;;;;;;;-1.09;100.00;101764.07;1750015;81;21099;-70
2022/10/22 03:45:38;;;;;;;54.10;29.63;;;;;;;-1.12;100.00;101767.35;1756691;80;21059;-70
2022/10/22 03:48:05;;;;;;;63.45;30.72;;;;;;;-1.09;100.00;101766.59;1756654;81;21091;-70
2022/10/22 03:50:32;;;;;;;63.95;30.70;;;;;;;-1.06;100.00;101767.91;1772288;80;21578;-70
2022/10/22 03:52:59;;;;;;;64.90;31.20;;;;;;;-1.05;100.00;101767.11;1751109;81;21400;-70
2022/10/22 03:55:27;;;;;;;62.73;29.98;;;;;;;-1.02;100.00;101759.59;1751142;81;21050;-70
2022/10/22 03:57:55;;;;;;;61.60;29.75;;;;;;;-1.05;100.00;101766.70;1756425;80;21058;-70
2022/10/22 04:00:22;;;;;;;64.62;31.00;;;;;;;-0.95;100.00;101761.84;1755705;81;21523;-70
2022/10/22 04:02:49;;;;;;;57.45;29.75;;;;;;;-0.90;100.00;101760.29;1750437;81;21031;-69
2022/10/22 04:05:16;;;;;;;61.02;29.80;;;;;;;-0.94;100.00;101761.88;1752467;81;21027;-71
2022/10/22 04:07:43;;;;;;;56.75;29.07;;;;;;;-0.94;100.00;101764.41;1750785;80;21019;-71
2022/10/22 04:10:12;;;;;;;58.68;29.32;;;;;;;-0.89;100.00;101767.03;1753603;81;21078;-70
2022/10/22 04:12:43;;;;;;;57.93;29.55;;;;;;;-0.89;100.00;101767.03;1770827;80;21482;-70
2022/10/22 04:15:10;;;;;;;62.30;30.52;;;;;;;-0.93;100.00;101768.66;1735819;81;21131;-70
2022/10/22 04:17:37;;;;;;;61.48;29.40;;;;;;;-0.93;100.00;101768.66;1750617;81;21040;-69
2022/10/22 04:20:06;;;;;;;62.10;30.62;;;;;;;-0.86;100.00;101770.91;1749630;81;21522;-70
2022/10/22 04:22:35;;;;;;;63.17;31.75;;;;;;;-0.72;100.00;101767.45;1748787;81;21059;-70
2022/10/22 04:25:04;;;;;;;60.35;31.27;;;;;;;-0.65;100.00;101768.01;1746366;81;21077;-70
2022/10/22 04:27:33;;;;;;;64.95;31.35;;;;;;;-0.59;100.00;101768.56;1760991;80;21099;-70
2022/10/22 04:30:00;;;;;;;58.00;30.40;;;;;;;-0.52;100.00;101767.47;1764886;80;21047;-70
2022/10/22 04:32:27;;;;;;;60.55;29.95;;;;;;;-0.34;100.00;101759.84;1755155;81;21035;-70
2022/10/22 04:34:55;;;;;;;61.77;30.17;;;;;;;-0.21;100.00;101764.32;1768833;80;21046;-70
2022/10/22 04:37:22;;;;;;;57.15;29.45;;;;;;;-0.09;100.00;101767.52;1755979;80;21040;-70
2022/10/22 04:39:49;;;;;;;62.62;29.98;;;;;;;0.10;100.00;101770.86;1753457;81;21031;-70
2022/10/22 04:42:16;;;;;;;58.98;29.80;;;;;;;0.28;100.00;101771.59;1757594;80;21038;-71
2022/10/22 04:44:44;;;;;;;57.45;29.37;;;;;;;0.36;100.00;101780.61;1756048;80;21058;-70
2022/10/22 04:47:11;;;;;;;58.85;29.77;;;;;;;0.50;100.00;101779.59;1764017;81;21075;-70
2022/10/22 04:49:40;;;;;;;56.68;30.15;;;;;;;0.55;100.00;101785.20;1755679;80;21031;-70
2022/10/22 04:52:07;;;;;;;59.03;30.37;;;;;;;0.56;100.00;101794.48;1754643;80;21066;-70
2022/10/22 04:54:36;;;;;;;60.25;30.80;;;;;;;0.60;100.00;101797.52;1757900;81;21071;-70
2022/10/22 04:57:03;;;;;;;62.95;30.92;;;;;;;0.64;100.00;101808.98;1752489;81;21015;-70
2022/10/22 04:59:30;;;;;;;60.80;30.00;;;;;;;0.64;100.00;101821.66;1752820;80;21051;-70
2022/10/22 05:01:57;;;;;;;61.95;30.27;;;;;;;0.69;100.00;101815.85;1749960;81;20991;-70
2022/10/22 05:04:24;;;;;;;60.12;29.23;;;;;;;0.71;100.00;101825.60;1757055;81;21023;-70
2022/10/22 05:06:51;;;;;;;54.40;29.02;;;;;;;0.77;100.00;101824.83;1747110;81;21067;-70
2022/10/22 05:09:20;;;;;;;58.55;28.95;;;;;;;0.79;100.00;101833.31;1760408;80;21059;-70
2022/10/22 05:11:50;;;;;;;52.80;27.25;;;;;;;0.88;100.00;101832.64;1758688;80;21110;-70
2022/10/22 05:14:22;;;;;;;53.35;26.37;;;;;;;1.02;100.00;101834.15;1761625;79;21613;-70
2022/10/22 05:16:51;;;;;;;50.38;26.33;;;;;;;1.13;100.00;101836.01;1751424;81;21117;-70
2022/10/22 05:19:29;;;;;;;48.20;25.02;;;;;;;1.24;100.00;101834.93;1754658;81;21546;-70
2022/10/22 05:22:01;;;;;;;52.80;26.10;;;;;;;1.27;100.00;101836.23;1749857;81;21088;-70
2022/10/22 05:24:32;;;;;;;47.27;25.15;;;;;;;1.37;100.00;101838.08;1755080;81;21007;-70
2022/10/22 05:27:00;;;;;;;48.55;24.85;;;;;;;1.39;100.00;101845.30;1769937;80;21565;-70
2022/10/22 05:29:29;;;;;;;49.05;25.65;;;;;;;1.44;100.00;101838.17;1756674;80;21047;-71
2022/10/22 05:31:57;;;;;;;49.98;25.00;;;;;;;1.45;100.00;101838.62;1748601;81;21031;-70
2022/10/22 05:34:24;;;;;;;49.73;25.08;;;;;;;1.60;100.00;101835.02;1760350;80;21037;-70
2022/10/22 05:36:52;;;;;;;49.60;25.20;;;;;;;1.71;100.00;101836.47;1755645;80;21040;-70
2022/10/22 05:39:21;;;;;;;45.73;25.12;;;;;;;1.90;100.00;101840.09;1761460;80;21098;-70
2022/10/22 05:41:47;;;;;;;50.40;26.60;;;;;;;1.98;100.00;101817.77;1765428;80;21351;-70
2022/10/22 05:44:16;;;;;;;64.15;33.15;;;;;;;2.09;100.00;101835.70;1759510;80;21062;-70
2022/10/22 05:46:44;;;;;;;81.97;36.45;;;;;;;2.18;100.00;101843.41;1752280;81;21070;-70
2022/10/22 05:49:14;;;;;;;81.28;40.45;;;;;;;2.28;100.00;101840.56;1752878;80;21043;-70
2022/10/22 05:51:41;;;;;;;78.35;38.65;;;;;;;2.32;100.00;101842.73;1765526;80;21550;-70
2022/10/22 05:54:14;;;;;;;83.25;39.40;;;;;;;2.38;100.00;101844.07;1759691;80;21051;-70
2022/10/22 05:56:42;;;;;;;78.85;37.25;;;;;;;2.45;100.00;101849.64;1757753;81;21071;-70
2022/10/22 05:59:10;;;;;;;76.35;36.63;;;;;;;2.55;100.00;101849.33;1748375;81;21495;-70
2022/10/22 06:01:39;;;;;;;68.85;35.98;;;;;;;2.74;100.00;101849.12;1754694;81;21046;-70
2022/10/22 06:04:10;;;;;;;72.92;36.77;;;;;;;2.83;100.00;101849.19;1752959;81;21514;-70
2022/10/22 06:06:46;;;;;;;73.85;35.52;;;;;;;2.90;100.00;101849.70;1757456;81;21074;-70
2022/10/22 06:09:28;;;;;;;62.53;33.20;;;;;;;3.03;100.00;101846.83;1752626;81;21055;-70
2022/10/22 06:11:57;;;;;;;62.73;31.00;;;;;;;3.18;100.00;101837.19;1749652;80;21539;-70
2022/10/22 06:14:25;;;;;;;64.47;32.20;;;;;;;3.41;100.00;101828.05;1752309;80;21143;-70
2022/10/22 06:16:53;;;;;;;54.98;30.62;;;;;;;3.65;100.00;101817.98;1758439;80;21630;-70
2022/10/22 06:19:25;;;;;;;62.20;33.55;;;;;;;3.88;100.00;101829.16;1756867;80;21023;-70
2022/10/22 06:21:52;;;;;;;58.42;31.90;;;;;;;4.24;100.00;101823.80;1768314;81;21052;-70
2022/10/22 06:24:20;;;;;;;50.55;26.87;;;;;;;4.48;100.00;101816.64;1754857;81;21126;-71
2022/10/22 06:26:52;;;;;;;51.73;28.55;;;;;;;4.61;100.00;101817.50;1750304;81;21020;-71
2022/10/22 06:29:19;;;;;;;50.05;26.00;;;;;;;4.80;100.00;101808.16;1750091;81;21106;-70
2022/10/22 06:31:47;;;;;;;38.35;21.93;;;;;;;4.97;100.00;101801.81;1758522;80;21063;-71
2022/10/22 06:34:17;;;;;;;31.85;19.17;;;;;;;5.19;100.00;101798.39;1757724;81;21471;-71
2022/10/22 06:36:46;;;;;;;28.27;17.82;;;;;;;5.48;100.00;101791.54;1750577;81;21066;-71
2022/10/22 06:39:15;;;;;;;28.23;17.02;;;;;;;5.73;100.00;101788.03;1751401;81;20990;-70
2022/10/22 06:41:42;;;;;;;26.97;16.23;;;;;;;5.95;100.00;101777.34;1754504;81;21056;-71
2022/10/22 06:44:18;;;;;;;26.87;15.18;;;;;;;6.21;100.00;101790.00;1751713;81;21141;-71
2022/10/22 06:46:51;;;;;;;25.90;16.37;;;;;;;6.42;100.00;101780.06;1757396;80;21591;-71
2022/10/22 06:49:20;;;;;;;24.80;15.15;;;;;;;6.57;100.00;101784.69;1760688;80;21077;-71
2022/10/22 06:51:52;;;;;;;27.60;15.35;;;;;;;6.77;100.00;101790.91;1747705;81;20995;-70
2022/10/22 06:54:20;;;;;;;22.45;15.03;;;;;;;6.96;100.00;101790.34;1748817;81;21581;-71
2022/10/22 06:56:47;;;;;;;24.98;15.05;;;;;;;7.18;100.00;101796.97;1757657;80;21042;-71
2022/10/22 06:59:14;;;;;;;28.70;15.35;;;;;;;7.38;100.00;101801.03;1756663;80;21150;-71
2022/10/22 07:01:41;;;;;;;24.12;15.30;;;;;;;7.59;100.00;101813.64;1755842;80;21078;-71
2022/10/22 07:04:10;;;;;;;26.23;15.90;;;;;;;7.73;100.00;101808.36;1753651;81;21054;-71
2022/10/22 07:06:37;;;;;;;28.62;16.57;;;;;;;7.84;100.00;101813.36;1754007;81;21008;-71
2022/10/22 07:09:06;;;;;;;22.77;15.63;;;;;;;7.87;100.00;101820.16;1733869;81;21067;-71
2022/10/22 07:11:43;;;;;;;26.97;16.12;;;;;;;7.93;100.00;101822.23;1731354;81;21054;-71
2022/10/22 07:14:12;;;;;;;24.47;16.50;;;;;;;7.97;100.00;101822.61;1750149;80;21060;-70
2022/10/22 07:16:44;;;;;;;25.75;15.15;;;;;;;7.85;100.00;101827.89;1752410;80;21058;-71
2022/10/22 07:19:08;;;;;;;25.75;15.63;;;;;;;7.86;100.00;101814.19;1755519;80;21533;-71
2022/10/22 07:21:35;;;;;;;23.65;14.68;;;;;;;8.01;100.00;101817.02;1742940;81;21032;-71
2022/10/22 07:24:04;;;;;;;23.80;15.23;;;;;;;8.14;100.00;101811.29;1743940;81;21059;-71
2022/10/22 07:26:31;;;;;;;22.27;14.40;;;;;;;8.19;100.00;101805.65;1754436;80;21028;-71
2022/10/22 07:29:00;;;;;;;21.12;13.78;;;;;;;8.31;100.00;101817.03;1757240;80;22195;-71
2022/10/22 07:31:28;;;;;;;20.97;13.45;;;;;;;8.41;100.00;101819.06;1753231;81;21625;-72
2022/10/22 07:33:56;;;;;;;21.37;13.78;;;;;;;8.52;100.00;101818.50;1758483;81;21039;-69
2022/10/22 07:36:23;;;;;;;20.25;12.93;;;;;;;8.69;100.00;101810.98;1758017;80;21475;-67
2022/10/22 07:38:56;;;;;;;16.37;10.98;;;;;;;8.86;100.00;101816.70;1762625;80;21110;-68
2022/10/22 07:41:24;;;;;;;16.42;10.70;;;;;;;8.89;100.00;101811.51;1751093;81;21099;-66
2022/10/22 07:43:52;;;;;;;18.62;11.50;;;;;;;9.09;100.00;101803.48;1766158;80;21043;-68
2022/10/22 07:46:19;;;;;;;13.65;9.70;;;;;;;9.39;100.00;101802.53;1749819;81;21015;-67
2022/10/22 07:48:46;;;;;;;12.45;8.18;;;;;;;9.74;100.00;101801.84;1755100;81;21093;-67
2022/10/22 07:51:14;;;;;;;15.20;8.15;;;;;;;9.94;100.00;101800.16;1754552;81;21030;-67
2022/10/22 07:53:41;;;;;;;11.43;7.72;;;;;;;10.09;100.00;101802.00;1760693;80;21038;-67
2022/10/22 07:56:09;;;;;;;10.85;7.58;;;;;;;10.14;100.00;101813.06;1744225;81;21044;-66
2022/10/22 07:58:38;;;;;;;13.25;7.40;;;;;;;10.34;100.00;101819.06;1759341;81;21087;-67
2022/10/22 08:01:05;;;;;;;12.13;6.90;;;;;;;10.55;100.00;101821.17;1759965;80;21090;-67
2022/10/22 08:03:34;;;;;;;8.43;5.83;;;;;;;10.83;100.00;101823.95;1748564;81;21590;-66
2022/10/22 08:06:01;;;;;;;8.90;5.45;;;;;;;10.85;100.00;101830.36;1749075;81;21549;-66
2022/10/22 08:08:28;;;;;;;7.53;5.17;;;;;;;11.08;100.00;101835.39;1755700;81;21042;-67
2022/10/22 08:10:57;;;;;;;7.95;5.37;;;;;;;10.97;100.00;101839.08;1756340;81;21039;-66
2022/10/22 08:13:27;;;;;;;7.78;5.40;;;;;;;10.91;100.00;101837.94;1748448;81;21086;-66
2022/10/22 08:15:56;;;;;;;6.12;5.00;;;;;;;11.00;100.00;101848.00;1764115;80;21590;-66
2022/10/22 08:18:23;;;;;;;7.00;5.40;;;;;;;10.96;100.00;101848.13;1753910;80;21066;-67
2022/10/22 08:20:52;;;;;;;6.10;4.75;;;;;;;10.83;100.00;101850.99;1751950;81;21003;-67
2022/10/22 08:23:20;;;;;;;8.23;4.80;;;;;;;11.06;100.00;101844.89;1760871;80;21023;-66
2022/10/22 08:25:47;;;;;;;8.25;4.65;;;;;;;11.19;100.00;101847.13;1762815;80;20979;-68
2022/10/22 08:28:14;;;;;;;5.20;4.20;;;;;;;11.27;100.00;101850.77;1755530;81;21496;-67
2022/10/22 08:30:43;;;;;;;7.58;4.60;;;;;;;11.20;100.00;101850.09;1759389;80;21046;-66
2022/10/22 08:33:10;;;;;;;7.78;4.22;;;;;;;11.27;100.00;101861.08;1752934;81;21479;-66
2022/10/22 08:35:37;;;;;;;4.67;3.77;;;;;;;11.33;100.00;101853.19;1757114;81;21071;-67
2022/10/22 08:38:04;;;;;;;4.70;3.52;;;;;;;11.39;100.00;101860.80;1759595;81;21468;-66
2022/10/22 08:40:37;;;;;;;6.08;3.90;;;;;;;11.41;100.00;101861.61;1753239;81;21040;-67
2022/10/22 08:43:35;;;;;;;6.65;3.85;;;;;;;11.40;100.00;101868.08;1730517;81;21025;-67
2022/10/22 08:46:35;;;;;;;5.10;4.17;;;;;;;11.58;100.00;101859.86;1733498;82;21157;-67
2022/10/22 08:49:08;;;;;;;6.67;4.28;;;;;;;11.91;100.00;101873.21;1721904;82;21079;-67
2022/10/22 08:51:40;;;;;;;5.50;4.30;;;;;;;11.90;100.00;101867.63;1720532;83;21095;-66
2022/10/22 08:54:47;;;;;;;6.05;3.72;;;;;;;12.19;100.00;101874.57;1726120;82;21041;-67
2022/10/22 08:57:41;;;;;;;8.85;5.05;;;;;;;12.20;100.00;101888.70;1719370;82;21082;-67
2022/10/22 09:00:22;;;;;;;7.58;4.45;;;;;;;12.25;100.00;101889.01;1715210;83;21049;-68
2022/10/22 09:03:16;;;;;;;6.35;3.98;;;;;;;12.28;100.00;101884.61;1726227;82;21069;-69
2022/10/22 09:06:26;;;;;;;7.25;4.45;;;;;;;12.10;100.00;101882.56;1724900;82;21137;-68
2022/10/22 09:08:56;;;;;;;8.30;5.22;;;;;;;12.14;100.00;101877.26;1720135;82;21031;-68
2022/10/22 09:11:34;;;;;;;5.80;3.87;;;;;;;12.26;100.00;101867.48;1721391;82;21091;-67
2022/10/22 09:14:04;;;;;;;4.45;3.87;;;;;;;12.36;100.00;101865.03;1717160;82;21566;-69
2022/10/22 09:17:26;;;;;;;6.17;3.62;;;;;;;12.69;100.00;101866.17;1718661;82;21110;-69
2022/10/22 09:20:22;;;;;;;5.60;3.50;;;;;;;13.00;100.00;101866.06;1720056;82;21103;-68
2022/10/22 09:23:12;;;;;;;4.58;3.02;;;;;;;13.17;100.00;101869.38;1714611;82;21048;-68
2022/10/22 09:25:40;;;;;;;4.92;3.27;;;;;;;13.14;100.00;101875.50;1730583;82;21020;-68
2022/10/22 09:28:09;;;;;;;4.28;3.20;;;;;;;12.90;100.00;101878.44;1699309;83;21031;-68
2022/10/22 09:30:38;;;;;;;4.03;2.80;;;;;;;12.79;100.00;101875.33;1722508;83;21012;-68
2022/10/22 09:33:10;;;;;;;4.30;2.90;;;;;;;12.63;100.00;101869.37;1731003;82;21004;-68
2022/10/22 09:35:57;;;;;;;3.25;2.52;;;;;;;12.67;100.00;101860.21;1733205;83;21533;-68
2022/10/22 09:38:29;;;;;;;4.12;2.87;;;;;;;12.83;100.00;101858.41;1718165;82;21982;-68
2022/10/22 09:40:59;;;;;;;3.45;2.83;;;;;;;13.10;100.00;101850.65;1714862;82;21031;-68
2022/10/22 09:43:26;;;;;;;3.90;2.98;;;;;;;13.38;100.00;101857.48;1720101;82;21092;-68
2022/10/22 09:46:00;;;;;;;4.85;2.98;;;;;;;13.56;100.00;101849.09;1721206;82;21013;-68
2022/10/22 09:48:37;;;;;;;5.22;2.50;;;;;;;13.75;100.00;101852.34;1726518;82;21048;-69
2022/10/22 09:51:22;;;;;;;2.45;2.20;;;;;;;13.77;100.00;101850.09;1721112;81;21117;-68
2022/10/22 09:54:01;;;;;;;3.70;1.60;;;;;;;13.50;100.00;101853.64;1722459;82;21094;-67
2022/10/22 09:56:40;;;;;;;2.83;1.65;;;;;;;13.25;100.00;101853.62;1715869;82;21630;-68
2022/10/22 09:59:15;;;;;;;2.58;2.27;;;;;;;13.29;100.00;101845.72;1731161;82;20988;-68
2022/10/22 10:01:43;;;;;;;4.50;3.37;;;;;;;13.53;100.00;101836.73;1724493;82;21460;-67
2022/10/22 10:04:15;;;;;;;3.12;1.77;;;;;;;13.75;100.00;101831.19;1726431;82;21008;-67
2022/10/22 10:06:44;;;;;;;2.80;1.90;;;;;;;13.85;100.00;101828.24;1726604;82;21056;-67
2022/10/22 10:09:22;;;;;;;4.75;2.60;;;;;;;13.99;100.00;101820.81;1710620;82;21031;-69
2022/10/22 10:12:09;;;;;;;3.00;2.12;;;;;;;14.14;100.00;101807.75;1712883;83;21099;-69
2022/10/22 10:14:55;;;;;;;2.58;2.22;;;;;;;14.29;100.00;101816.67;1723558;82;21964;-69
2022/10/22 10:17:28;;;;;;;;;;;;;;;13.99;100.00;101816.92;1728752;82;21482;-69
2022/10/22 10:20:06;;;;;;;;;;;;;;;13.69;100.00;101809.41;1728474;82;20123;-68
2022/10/22 10:22:42;;;;;;;2.90;2.30;;;;;;;13.41;100.00;101808.25;1722034;82;20108;-69
2022/10/22 10:25:38;;;;;;;2.70;2.42;;;;;;;13.28;100.00;101798.77;1724277;83;21623;-69
2022/10/22 10:28:43;;;;;;;5.05;2.77;;;;;;;13.16;100.00;101803.06;1724130;82;21037;-69
2022/10/22 10:31:21;;;;;;;4.47;2.60;;;;;;;12.97;100.00;101809.28;1720065;82;21107;-68
2022/10/22 10:34:09;;;;;;;2.62;2.02;;;;;;;13.05;100.00;101807.74;1725228;82;21089;-69
2022/10/22 10:37:16;;;;;;;3.08;2.50;;;;;;;13.17;100.00;101803.45;1647035;86;21089;-69
2022/10/22 10:39:57;;;;;;;4.15;2.60;;;;;;;13.29;100.00;101800.89;1721477;82;21039;-68
2022/10/22 10:42:33;;;;;;;4.33;2.85;;;;;;;13.81;100.00;101799.06;1726880;82;21208;-69
2022/10/22 10:45:14;;;;;;;5.62;2.67;;;;;;;13.83;100.00;101790.80;1719854;83;21106;-69
2022/10/22 10:47:55;;;;;;;3.00;2.40;;;;;;;13.77;100.00;101789.73;1719370;82;21025;-69
2022/10/22 10:50:27;;;;;;;3.35;2.30;;;;;;;13.28;100.00;101783.67;1719746;82;21570;-69
2022/10/22 10:53:15;;;;;;;6.65;2.55;;;;;;;13.14;100.00;101782.43;1727321;82;21521;-68
2022/10/22 10:56:00;;;;;;;2.80;2.20;;;;;;;12.96;100.00;101776.14;1728193;82;21579;-68
2022/10/22 10:58:50;;;;;;;2.65;2.10;;;;;;;13.06;100.00;101769.34;1726162;82;21040;-68
2022/10/22 11:01:38;;;;;;;3.92;2.30;;;;;;;13.13;100.00;101769.09;1722998;82;21051;-69
2022/10/22 11:04:14;;;;;;;2.72;2.05;;;;;;;13.13;100.00;101762.63;1715226;82;21107;-69
2022/10/22 11:06:44;;;;;;;3.47;1.82;;;;;;;12.99;100.00;101769.55;1715752;82;21063;-69
2022/10/22 11:09:26;;;;;;;3.40;2.00;;;;;;;12.90;100.00;101767.30;1710966;83;21534;-68
2022/10/22 11:12:04;;;;;;;1.95;1.75;;;;;;;12.94;100.00;101748.21;1717787;82;21531;-69
2022/10/22 11:14:53;;;;;;;3.92;1.90;;;;;;;13.03;100.00;101747.88;1722465;83;21041;-69
2022/10/22 11:17:23;;;;;;;2.42;1.90;;;;;;;13.07;100.00;101743.91;1715468;82;21080;-69
2022/10/22 11:20:06;;;;;;;2.08;1.92;;;;;;;13.04;100.00;101746.16;1724641;82;21051;-69
2022/10/22 11:22:40;;;;;;;2.08;1.82;;;;;;;13.01;100.00;101741.08;1721661;82;21025;-69
2022/10/22 11:25:18;;;;;;;1.82;1.70;;;;;;;12.98;100.00;101742.04;1716739;83;21075;-69
2022/10/22 11:27:58;;;;;;;1.87;1.70;;;;;;;13.03;100.00;101738.83;1720028;82;21087;-68
2022/10/22 11:30:31;;;;;;;1.85;1.70;;;;;;;13.18;100.00;101734.89;1712615;82;21086;-69
2022/10/22 11:33:03;;;;;;;2.20;1.87;;;;;;;13.36;100.00;101734.72;1721582;82;21055;-69
2022/10/22 11:35:35;;;;;;;2.70;1.70;;;;;;;13.45;100.00;101736.11;1722796;82;21043;-69
2022/10/22 11:38:08;;;;;;;3.30;1.60;;;;;;;13.38;100.00;101740.67;1730278;81;21095;-69